White Owl, SD (57792)

3:04 PM MDT on September 21, 2014 (GMT -0600)
Ellsworth Air Force Base | Change Station
CLOSE
Current Station
Airport
Location: Ellsworth AFB,
Elevation: 3278 ft
Nearby Weather Stations

Elev 3278 ft 44.15 °N, 103.10 °W | Updated 6 minutes ago

Clear
Clear
73 °F
Feels Like 73 °F
N
5
Wind Variable Wind from ESE

Today
High -- | Low -- °F
--% Chance of Precip.
Yesterday
High -- | Low -- °F
Precip. -- in
6:35 AM 6:48 PM
Waning Crescent, 5% visible
Pressure 30.27 in
Visibility 10.0 miles
Clouds Clear
Dew Point 38 °F
Humidity 28%
Rainfall 0.00 in
Snow Depth 0 in
UV 5 out of 12
Pollen 5.40 out of 12
Air Quality Not available.
Flu Activity Not available.
METAR KRCA 212058Z AUTO 11004KT 10SM CLR 23/04 A3028 RMK AO2 VIS 1 RWY13 SLP248 T02290036 57020 $

More Conditions Fewer Conditions

Pressure 30.27 in
Visibility 10.0 miles
Clouds Clear
Dew Point 38 °F
Humidity 28%
Rainfall 0.00 in
Snow Depth 0 in
UV 5 out of 12
Pollen 5.40 out of 12
Air Quality Not available.
Flu Activity Not available.
METAR KRCA 212058Z AUTO 11004KT 10SM CLR 23/04 A3028 RMK AO2 VIS 1 RWY13 SLP248 T02290036 57020 $

More Conditions Fewer Conditions

10-Day Weather Forecast

Almanac

Astronomy

Sep. 21, 2014 Rise Set
Actual Time 6:35 AM MDT 6:48 PM MDT
Civil Twilight 6:06 AM MDT 7:18 PM MDT
Nautical Twilight 5:32 AM MDT 7:52 PM MDT
Astronomical Twilight 4:57 AM MDT 8:27 PM MDT
Moon 4:06 AM MDT 5:29 PM MDT
Length of Visible Light 13h 11m
Length of Day
12h 13m
Tomorrow will be 3m 4s shorter.
Waning Crescent, 5% of the Moon is Illuminated
Today
Waning Crescent
Sep 24
New
Oct 1
First Quarter
Oct 8
Full
Oct 15
Last Quarter

Today's Extremes

State Highs State Lows

Community

WunderPhotos

Upload Photos

1,755,258 photos uploaded!

Nearby

Snow Depth

Station Depth Elevation
Blind Park 0 in 6890 ft

Earthquake Activity

City Distance Mag. Time & Date
No recent earthquake activity has been reported nearby.
Minimum magnitude displayed is 2.5.

Coastal Water Temperatures

Place Temperature
No Stations Reporting

Nearby Weather Stations